Time;durP1;ratioP1;P1;durP2;ratioP2;P2;SDS_P1;SDS_P2;PMS_P1;PMS_P2;Temp;Humidity;BMP_temperature;BMP_pressure;BME280_temperature;BME280_humidity;BME280_pressure;Samples;Min_cycle;Max_cycle;Signal;HPM_P1;HPM_P2
2022/06/12 00:01:30;;;;;;;0.10;0.10;;;12.90;99.90;;;;;;5088962;28;20036;-79
2022/06/12 00:03:57;;;;;;;0.10;0.10;;;12.90;99.90;;;;;;5071860;28;20048;-79
2022/06/12 00:06:24;;;;;;;0.10;0.10;;;12.90;99.90;;;;;;5072448;28;20037;-79
2022/06/12 00:08:51;;;;;;;0.20;0.20;;;12.80;99.90;;;;;;5088366;28;20036;-79
2022/06/12 00:11:19;;;;;;;0.17;0.15;;;12.70;99.90;;;;;;5088585;28;20092;-78
2022/06/12 00:13:51;;;;;;;0.10;0.10;;;12.70;99.90;;;;;;5088795;28;20048;-79
2022/06/12 00:16:20;;;;;;;0.10;0.10;;;12.70;99.90;;;;;;5060020;28;20065;-79
2022/06/12 00:18:46;;;;;;;0.10;0.10;;;12.60;99.90;;;;;;5068695;28;20106;-79
2022/06/12 00:21:14;;;;;;;0.00;0.00;;;12.60;99.90;;;;;;5035674;28;20045;-79
2022/06/12 00:24:12;;;;;;;0.43;0.28;;;12.60;99.90;;;;;;5067134;28;20494;-79
2022/06/12 00:26:53;;;;;;;0.10;0.10;;;12.60;99.90;;;;;;5073004;28;20135;-78
2022/06/12 00:29:23;;;;;;;0.50;0.30;;;12.50;99.90;;;;;;5092728;28;20037;-79
2022/06/12 00:31:59;;;;;;;0.10;0.10;;;12.40;99.90;;;;;;5075795;28;20036;-78
2022/06/12 00:34:34;;;;;;;0.15;0.10;;;12.50;99.90;;;;;;5091965;28;20539;-78
2022/06/12 00:37:02;;;;;;;0.27;0.27;;;12.40;99.90;;;;;;5075325;28;20119;-79
2022/06/12 00:39:30;;;;;;;0.10;0.10;;;12.40;99.90;;;;;;5075402;28;20771;-79
2022/06/12 00:41:58;;;;;;;0.10;0.10;;;12.30;99.90;;;;;;5075140;28;20044;-79
2022/06/12 00:44:34;;;;;;;0.35;0.20;;;12.40;99.90;;;;;;5075453;28;20037;-79
2022/06/12 00:47:04;;;;;;;0.17;0.13;;;12.30;99.90;;;;;;5075054;28;20390;-78
2022/06/12 00:49:42;;;;;;;0.20;0.20;;;12.30;99.90;;;;;;5092091;28;20052;-79
2022/06/12 00:52:33;;;;;;;0.10;0.10;;;12.30;99.90;;;;;;5074404;28;20131;-78
2022/06/12 00:55:24;;;;;;;0.20;0.10;;;12.30;99.90;;;;;;5091490;28;20040;-78
2022/06/12 00:57:53;;;;;;;0.10;0.10;;;12.20;99.90;;;;;;5075239;28;20071;-78
2022/06/12 01:00:20;;;;;;;0.10;0.10;;;12.20;99.90;;;;;;5074552;28;20405;-79
2022/06/12 01:02:47;;;;;;;0.08;0.08;;;12.20;99.90;;;;;;5075408;28;20128;-79
2022/06/12 01:08:06;;;;;;;0.10;0.10;;;12.20;99.90;;;;;;5091672;28;20042;-78
2022/06/12 01:10:35;;;;;;;0.10;0.10;;;12.10;99.90;;;;;;5091665;28;20123;-79
2022/06/12 01:13:11;;;;;;;0.10;0.10;;;12.10;99.90;;;;;;5074757;28;20470;-79
2022/06/12 01:15:43;;;;;;;0.25;0.10;;;12.10;99.90;;;;;;5074726;28;20040;-78
2022/06/12 01:18:16;;;;;;;0.45;0.17;;;12.10;99.90;;;;;;5074088;28;20045;-78
2022/06/12 01:21:01;;;;;;;0.10;0.10;;;12.10;99.90;;;;;;5092008;28;20076;-79
2022/06/12 01:24:05;;;;;;;0.20;0.20;;;12.10;99.90;;;;;;5091348;28;20048;-79
2022/06/12 01:26:50;;;;;;;0.68;0.30;;;12.10;99.90;;;;;;5074357;28;20588;-79
2022/06/12 01:29:40;;;;;;;0.10;0.10;;;12.10;99.90;;;;;;5074642;28;20048;-79
2022/06/12 01:32:37;;;;;;;0.10;0.10;;;12.10;99.90;;;;;;5090724;28;20837;-79
2022/06/12 01:35:22;;;;;;;0.20;0.10;;;12.10;99.90;;;;;;5074070;28;20032;-79
2022/06/12 01:37:55;;;;;;;0.10;0.10;;;12.10;99.90;;;;;;5090805;28;20094;-79
2022/06/12 01:40:38;;;;;;;0.20;0.20;;;12.10;99.90;;;;;;5090923;28;20489;-79
2022/06/12 01:43:10;;;;;;;0.10;0.10;;;12.10;99.90;;;;;;5074033;28;20029;-78
2022/06/12 01:45:55;;;;;;;0.28;0.20;;;12.00;99.90;;;;;;5074030;28;20417;-78
2022/06/12 01:48:44;;;;;;;0.10;0.10;;;12.00;99.90;;;;;;5073926;28;20569;-78
2022/06/12 01:51:40;;;;;;;0.15;0.10;;;12.00;99.90;;;;;;5090574;28;20052;-78
2022/06/12 01:54:28;;;;;;;0.43;0.20;;;12.00;99.90;;;;;;5090663;28;20056;-78
2022/06/12 01:57:04;;;;;;;0.10;0.10;;;11.90;99.90;;;;;;5074299;28;20043;-79
2022/06/12 01:59:49;;;;;;;;;;;11.90;99.90;;;;;;5074536;28;20137;-78
2022/06/12 02:02:37;;;;;;;0.10;0.10;;;11.90;99.90;;;;;;5073998;28;20007;-79
2022/06/12 02:05:16;;;;;;;0.10;0.10;;;11.80;99.90;;;;;;5074104;28;20094;-78
2022/06/12 02:07:51;;;;;;;0.08;0.08;;;11.90;99.90;;;;;;5090326;28;20478;-79
2022/06/12 02:10:30;;;;;;;0.15;0.15;;;11.80;99.90;;;;;;5086164;28;20127;-79
2022/06/12 02:13:14;;;;;;;0.15;0.15;;;11.80;99.90;;;;;;5070425;28;20045;-79
2022/06/12 02:15:53;;;;;;;0.10;0.10;;;11.80;99.90;;;;;;5070416;28;20102;-79
2022/06/12 02:18:25;;;;;;;0.10;0.10;;;11.80;99.90;;;;;;5070271;28;20120;-79
2022/06/12 02:21:05;;;;;;;0.17;0.17;;;11.80;99.90;;;;;;5053999;28;20036;-78
2022/06/12 02:23:43;;;;;;;0.17;0.17;;;11.80;99.90;;;;;;5053144;28;20063;-79
2022/06/12 02:26:17;;;;;;;0.20;0.20;;;11.80;99.90;;;;;;5069604;28;20482;-79
2022/06/12 02:28:58;;;;;;;0.10;0.10;;;11.80;99.90;;;;;;5053562;28;20102;-79
2022/06/12 02:31:34;;;;;;;0.13;0.13;;;11.80;99.90;;;;;;5088120;28;20043;-79
2022/06/12 02:34:07;;;;;;;0.20;0.20;;;11.80;99.90;;;;;;5073435;28;20429;-79
2022/06/12 02:36:42;;;;;;;0.08;0.08;;;11.80;99.90;;;;;;5089508;28;20546;-79
2022/06/12 02:39:21;;;;;;;0.50;0.10;;;11.80;99.90;;;;;;5073634;28;20040;-79
2022/06/12 02:41:51;;;;;;;0.08;0.08;;;11.80;99.90;;;;;;5073453;28;20052;-79
2022/06/12 02:44:31;;;;;;;0.17;0.10;;;11.80;99.90;;;;;;5089403;28;20048;-79
2022/06/12 02:47:11;;;;;;;0.55;0.20;;;11.70;99.90;;;;;;5072665;28;20079;-78
2022/06/12 02:49:42;;;;;;;0.20;0.20;;;11.70;99.90;;;;;;5089301;28;20101;-78
2022/06/12 02:52:40;;;;;;;0.10;0.10;;;11.70;99.90;;;;;;5072271;28;20045;-79
2022/06/12 02:55:16;;;;;;;0.10;0.10;;;11.70;99.90;;;;;;5089243;28;20057;-79
2022/06/12 02:57:55;;;;;;;0.10;0.10;;;11.80;99.90;;;;;;5089608;28;20040;-78
2022/06/12 03:00:50;;;;;;;0.10;0.10;;;11.80;99.90;;;;;;5071913;28;20074;-79
2022/06/12 03:03:29;;;;;;;0.10;0.10;;;11.80;99.90;;;;;;5072286;28;20048;-79
2022/06/12 03:05:59;;;;;;;0.25;0.20;;;11.80;99.90;;;;;;5072723;28;20039;-79
2022/06/12 03:08:37;;;;;;;0.10;0.10;;;11.80;99.90;;;;;;5072023;28;20037;-79
2022/06/12 03:11:10;;;;;;;0.10;0.10;;;11.80;99.90;;;;;;5072575;28;20048;-79
2022/06/12 03:13:38;;;;;;;0.10;0.10;;;11.80;99.90;;;;;;5072342;28;20666;-79
2022/06/12 03:16:23;;;;;;;0.28;0.20;;;11.80;99.90;;;;;;5072522;28;20675;-79
2022/06/12 03:19:00;;;;;;;0.10;0.10;;;11.80;99.90;;;;;;5072583;28;20119;-79
2022/06/12 03:21:46;;;;;;;0.20;0.20;;;11.80;99.90;;;;;;5088549;28;20483;-79
2022/06/12 03:24:18;;;;;;;0.10;0.10;;;11.80;99.90;;;;;;5089534;28;20041;-79
2022/06/12 03:26:57;;;;;;;0.03;0.03;;;11.90;99.90;;;;;;5072959;28;20055;-79
2022/06/12 03:29:57;;;;;;;0.20;0.10;;;11.90;99.90;;;;;;5072227;28;20519;-79
2022/06/12 03:33:01;;;;;;;0.30;0.15;;;11.90;99.90;;;;;;5088615;28;20056;-79
2022/06/12 03:35:44;;;;;;;0.22;0.20;;;12.00;99.90;;;;;;5072129;28;20391;-79
2022/06/12 03:38:29;;;;;;;0.10;0.10;;;11.90;99.90;;;;;;5085517;28;20078;-79
2022/06/12 03:41:21;;;;;;;0.10;0.10;;;12.00;99.90;;;;;;5062796;28;20036;-79
2022/06/12 03:44:06;;;;;;;0.40;0.20;;;12.00;99.90;;;;;;5071188;28;20501;-80
2022/06/12 03:46:40;;;;;;;0.10;0.10;;;12.00;99.90;;;;;;5068334;28;20049;-79
2022/06/12 03:49:15;;;;;;;0.55;0.20;;;12.10;99.90;;;;;;5069098;28;20113;-79
2022/06/12 03:51:53;;;;;;;0.10;0.10;;;12.10;99.90;;;;;;5068733;28;20077;-79
2022/06/12 03:54:45;;;;;;;0.10;0.10;;;12.10;99.90;;;;;;5070976;28;20087;-79
2022/06/12 04:00:17;;;;;;;0.10;0.10;;;12.10;99.90;;;;;;5109794;28;20076;-79
2022/06/12 04:02:47;;;;;;;0.10;0.10;;;12.10;99.90;;;;;;5076162;28;20039;-79
2022/06/12 04:05:32;;;;;;;0.10;0.10;;;12.10;99.90;;;;;;5092952;28;20044;-79
2022/06/12 04:08:01;;;;;;;0.32;0.20;;;12.10;99.90;;;;;;5076037;28;20091;-79
2022/06/12 04:10:34;;;;;;;0.00;0.00;;;12.10;99.90;;;;;;5075738;28;20101;-79
2022/06/12 04:13:02;;;;;;;0.13;0.13;;;12.20;99.90;;;;;;5076219;28;20052;-79
2022/06/12 04:15:50;;;;;;;0.47;0.10;;;12.20;99.90;;;;;;5075719;28;20383;-79
2022/06/12 04:18:17;;;;;;;0.45;0.20;;;12.20;99.90;;;;;;5092671;28;20378;-79
2022/06/12 04:21:07;;;;;;;0.10;0.10;;;12.20;99.90;;;;;;5075508;28;20512;-79
2022/06/12 04:23:47;;;;;;;0.10;0.10;;;12.30;99.90;;;;;;5075601;28;20574;-79
2022/06/12 04:26:39;;;;;;;0.08;0.08;;;12.30;99.90;;;;;;5092978;28;20049;-79
2022/06/12 04:29:21;;;;;;;0.10;0.10;;;12.20;99.90;;;;;;5092075;28;20048;-79
2022/06/12 04:31:50;;;;;;;0.10;0.10;;;12.30;99.90;;;;;;5091649;28;20041;-79
2022/06/12 04:34:20;;;;;;;0.10;0.10;;;12.30;99.90;;;;;;5075631;28;20048;-78
2022/06/12 04:36:50;;;;;;;0.15;0.10;;;12.30;99.90;;;;;;5075563;28;20161;-79
2022/06/12 04:39:20;;;;;;;0.00;0.00;;;12.40;99.90;;;;;;5075802;28;20040;-79
2022/06/12 04:41:47;;;;;;;0.47;0.10;;;12.40;99.90;;;;;;5075396;28;20237;-79
2022/06/12 04:44:15;;;;;;;0.10;0.10;;;12.40;99.90;;;;;;5059411;28;20445;-79
2022/06/12 04:46:45;;;;;;;0.90;0.10;;;12.50;99.90;;;;;;5075128;28;20045;-79
2022/06/12 04:49:19;;;;;;;0.30;0.30;;;12.50;99.90;;;;;;5075673;28;20048;-79
2022/06/12 04:51:47;;;;;;;0.10;0.10;;;12.50;99.90;;;;;;5092014;28;20033;-79
2022/06/12 04:54:14;;;;;;;0.10;0.10;;;12.60;99.90;;;;;;5091809;28;20186;-79
2022/06/12 04:56:42;;;;;;;0.10;0.10;;;12.60;99.90;;;;;;5074681;28;20082;-79
2022/06/12 04:59:10;;;;;;;0.10;0.10;;;12.90;99.90;;;;;;5075345;28;20036;-79
2022/06/12 05:01:37;;;;;;;0.10;0.10;;;12.80;99.90;;;;;;5074885;28;20044;-79
2022/06/12 05:04:04;;;;;;;0.10;0.10;;;12.80;99.90;;;;;;5075195;28;20131;-79
2022/06/12 05:06:31;;;;;;;0.17;0.13;;;12.80;99.90;;;;;;5091017;28;20493;-79
2022/06/12 05:08:59;;;;;;;0.52;0.20;;;12.90;99.90;;;;;;5090938;28;20500;-79
2022/06/12 05:11:26;;;;;;;0.13;0.13;;;13.00;99.90;;;;;;5091268;28;20044;-79
2022/06/12 05:13:53;;;;;;;0.10;0.10;;;13.00;99.90;;;;;;5058286;28;20046;-79
2022/06/12 05:16:48;;;;;;;0.00;0.00;;;13.10;99.90;;;;;;5091681;28;20028;-79
2022/06/12 05:19:18;;;;;;;0.10;0.10;;;13.10;99.90;;;;;;5074746;28;20075;-79
2022/06/12 05:21:45;;;;;;;0.10;0.10;;;13.20;99.90;;;;;;5074180;28;20868;-79
2022/06/12 05:24:13;;;;;;;0.10;0.10;;;13.30;99.90;;;;;;5074545;28;20073;-79
2022/06/12 05:26:42;;;;;;;0.10;0.10;;;13.30;99.90;;;;;;5058105;28;20132;-79
2022/06/12 05:29:14;;;;;;;0.10;0.10;;;13.30;99.90;;;;;;5091147;28;20037;-79
2022/06/12 05:31:41;;;;;;;0.20;0.20;;;13.40;99.90;;;;;;5090586;28;20049;-79
2022/06/12 05:34:08;;;;;;;0.00;0.00;;;13.40;99.90;;;;;;5091008;28;20131;-79
2022/06/12 05:36:35;;;;;;;0.10;0.10;;;13.50;99.90;;;;;;5074057;28;20040;-79
2022/06/12 05:39:03;;;;;;;0.00;0.00;;;13.60;99.90;;;;;;5074507;28;20079;-78
2022/06/12 05:41:30;;;;;;;0.00;0.00;;;13.60;99.90;;;;;;5073954;28;20397;-79
2022/06/12 05:43:56;;;;;;;0.10;0.10;;;13.70;99.90;;;;;;5073858;28;20048;-79
2022/06/12 05:46:23;;;;;;;0.17;0.17;;;13.70;99.90;;;;;;5090799;28;20040;-79
2022/06/12 05:48:50;;;;;;;0.10;0.10;;;13.80;99.90;;;;;;5074097;28;20047;-79
2022/06/12 05:51:18;;;;;;;0.13;0.10;;;13.80;99.90;;;;;;5073975;28;20045;-79
2022/06/12 05:53:45;;;;;;;0.10;0.10;;;13.90;99.90;;;;;;5073890;28;20091;-79
2022/06/12 05:56:15;;;;;;;0.10;0.10;;;14.00;99.90;;;;;;5073726;28;20766;-79
2022/06/12 05:58:43;;;;;;;0.25;0.10;;;14.00;99.90;;;;;;5073426;28;20043;-79
2022/06/12 06:01:12;;;;;;;0.10;0.10;;;14.00;99.90;;;;;;5073334;28;20036;-79
2022/06/12 06:03:39;;;;;;;0.10;0.10;;;14.10;99.90;;;;;;5089936;28;20048;-79
2022/06/12 06:06:07;;;;;;;0.28;0.13;;;14.30;99.90;;;;;;5090175;28;20080;-79
2022/06/12 06:08:34;;;;;;;0.00;0.00;;;14.30;99.90;;;;;;5090666;28;20055;-79
2022/06/12 06:11:01;;;;;;;0.10;0.10;;;14.40;99.90;;;;;;5073257;28;20128;-79
2022/06/12 06:13:28;;;;;;;0.15;0.15;;;14.50;99.90;;;;;;5073860;28;20123;-79
2022/06/12 06:15:55;;;;;;;0.10;0.10;;;14.50;99.90;;;;;;5056856;28;20468;-79
2022/06/12 06:18:22;;;;;;;0.75;0.30;;;14.60;99.90;;;;;;5073361;28;20040;-79
2022/06/12 06:20:49;;;;;;;0.10;0.10;;;14.70;99.90;;;;;;5072164;28;20044;-79
2022/06/12 06:23:15;;;;;;;0.15;0.15;;;14.80;99.90;;;;;;5073275;28;20032;-79
2022/06/12 06:25:42;;;;;;;0.05;0.05;;;14.90;99.90;;;;;;5076752;28;20132;-78
2022/06/12 06:28:11;;;;;;;0.10;0.10;;;14.90;99.90;;;;;;5053820;28;20531;-79
2022/06/12 06:30:39;;;;;;;0.30;0.20;;;15.00;99.90;;;;;;5053422;28;20080;-79
2022/06/12 06:33:06;;;;;;;0.57;0.20;;;15.10;99.90;;;;;;5059560;28;20428;-80
2022/06/12 06:35:32;;;;;;;0.20;0.10;;;15.30;99.90;;;;;;5086343;28;20074;-79
2022/06/12 06:37:59;;;;;;;0.40;0.20;;;15.40;99.90;;;;;;5060635;28;20037;-79
2022/06/12 06:40:28;;;;;;;0.25;0.25;;;15.40;99.90;;;;;;5052989;28;20122;-79
2022/06/12 06:42:55;;;;;;;1.05;0.28;;;15.60;99.90;;;;;;5086714;28;20037;-79
2022/06/12 06:48:10;;;;;;;0.73;0.40;;;15.70;99.90;;;;;;5106069;28;20413;-79
2022/06/12 06:50:38;;;;;;;0.20;0.20;;;15.80;99.90;;;;;;5071208;28;20101;-79
2022/06/12 06:53:05;;;;;;;0.47;0.38;;;15.90;99.90;;;;;;5057044;28;20394;-80
2022/06/12 06:55:33;;;;;;;0.85;0.30;;;16.00;99.90;;;;;;5069019;28;20048;-79
2022/06/12 06:58:00;;;;;;;0.20;0.20;;;16.10;99.90;;;;;;5069222;28;20036;-79
2022/06/12 07:00:32;;;;;;;0.32;0.10;;;16.20;99.90;;;;;;5057171;28;20067;-79
2022/06/12 07:02:59;;;;;;;0.10;0.10;;;16.30;99.90;;;;;;5053103;28;20116;-80
2022/06/12 07:05:28;;;;;;;0.22;0.22;;;16.40;99.90;;;;;;5067395;28;20225;-79
2022/06/12 07:07:56;;;;;;;0.10;0.10;;;16.50;99.90;;;;;;5059684;28;20038;-79
2022/06/12 07:10:25;;;;;;;0.75;0.38;;;16.60;99.90;;;;;;5081195;28;20037;-79
2022/06/12 07:12:52;;;;;;;0.30;0.30;;;16.70;99.90;;;;;;5068750;28;20045;-79
2022/06/12 07:15:20;;;;;;;1.20;0.85;;;16.70;99.90;;;;;;5068598;28;20045;-79
2022/06/12 07:17:47;;;;;;;0.20;0.20;;;16.70;99.90;;;;;;5040599;28;20029;-79
2022/06/12 07:20:17;;;;;;;0.20;0.20;;;16.80;99.90;;;;;;5041090;28;20073;-78
2022/06/12 07:22:44;;;;;;;0.55;0.30;;;16.90;99.90;;;;;;5060036;28;20091;-79
2022/06/12 07:25:11;;;;;;;0.25;0.20;;;17.00;99.90;;;;;;5065779;28;20041;-79
2022/06/12 07:27:39;;;;;;;0.20;0.20;;;17.00;99.90;;;;;;5068811;28;20047;-78
2022/06/12 07:30:09;;;;;;;0.10;0.10;;;17.10;99.90;;;;;;5076486;28;20725;-79
2022/06/12 07:32:36;;;;;;;0.10;0.10;;;17.30;99.90;;;;;;5082066;28;20497;-80
2022/06/12 07:35:03;;;;;;;0.20;0.20;;;17.30;99.90;;;;;;5050941;28;20048;-79
2022/06/12 07:37:30;;;;;;;0.20;0.20;;;17.40;99.90;;;;;;5068036;28;20448;-79
2022/06/12 07:39:57;;;;;;;0.47;0.20;;;17.50;99.90;;;;;;5051175;28;20041;-79
2022/06/12 07:42:24;;;;;;;0.45;0.30;;;17.60;99.90;;;;;;5050725;28;20070;-78
2022/06/12 07:44:50;;;;;;;0.30;0.22;;;17.70;99.90;;;;;;5051652;28;20401;-78
2022/06/12 07:47:17;;;;;;;0.28;0.20;;;17.80;99.90;;;;;;5067990;28;20450;-80
2022/06/12 07:49:44;;;;;;;0.30;0.13;;;18.00;99.90;;;;;;5084711;28;20037;-80
2022/06/12 07:52:12;;;;;;;0.80;0.38;;;18.10;99.90;;;;;;5083634;28;20053;-79
2022/06/12 07:54:39;;;;;;;0.57;0.50;;;18.20;99.90;;;;;;5080121;28;20521;-79
2022/06/12 07:57:07;;;;;;;0.30;0.20;;;18.20;99.90;;;;;;5049456;28;20042;-80
2022/06/12 07:59:34;;;;;;;0.98;0.45;;;18.30;99.90;;;;;;5067761;28;20048;-79
2022/06/12 08:02:01;;;;;;;0.10;0.10;;;18.40;99.90;;;;;;5065571;28;20194;-80
2022/06/12 08:04:28;;;;;;;0.30;0.30;;;18.40;99.90;;;;;;5084132;28;20090;-80
2022/06/12 08:06:54;;;;;;;0.00;0.00;;;18.50;99.90;;;;;;5068180;28;20049;-80
2022/06/12 08:09:21;;;;;;;0.20;0.20;;;18.50;99.90;;;;;;5101685;28;20049;-79
2022/06/12 08:11:50;;;;;;;0.20;0.20;;;18.60;99.90;;;;;;5084211;28;20719;-79
2022/06/12 08:14:20;;;;;;;1.17;0.30;;;18.70;99.90;;;;;;5049199;28;20049;-79
2022/06/12 08:16:46;;;;;;;0.60;0.47;;;18.70;99.90;;;;;;5064714;28;20041;-79
2022/06/12 08:22:02;;;;;;;0.20;0.20;;;18.90;99.90;;;;;;5064468;28;20041;-79
2022/06/12 08:24:30;;;;;;;1.40;0.73;;;19.10;99.90;;;;;;5082092;28;20045;-79
2022/06/12 08:26:56;;;;;;;0.17;0.17;;;19.20;99.90;;;;;;5067589;28;20067;-80
2022/06/12 08:29:24;;;;;;;1.27;0.28;;;19.20;99.90;;;;;;5084622;28;20041;-80
2022/06/12 08:31:57;;;;;;;0.28;0.25;;;19.30;99.90;;;;;;5051336;28;20033;-79
2022/06/12 08:34:33;;;;;;;0.52;0.20;;;19.50;99.90;;;;;;5084340;28;20098;-79
2022/06/12 08:37:03;;;;;;;1.25;0.52;;;19.60;99.90;;;;;;5084346;28;20371;-79
2022/06/12 08:39:30;;;;;;;0.90;0.45;;;19.80;99.90;;;;;;5084704;28;20099;-79
2022/06/12 08:42:19;;;;;;;1.75;0.80;;;19.90;99.90;;;;;;5084027;28;20053;-79
2022/06/12 08:45:07;;;;;;;0.68;0.30;;;19.90;99.90;;;;;;5051153;28;20045;-80
2022/06/12 08:47:59;;;;;;;0.25;0.15;;;20.00;99.90;;;;;;5052118;28;20163;-79
2022/06/12 08:50:40;;;;;;;0.20;0.20;;;20.00;99.90;;;;;;5052432;28;20045;-79
2022/06/12 08:53:20;;;;;;;0.55;0.30;;;20.20;99.90;;;;;;5065102;28;20524;-80
2022/06/12 08:56:06;;;;;;;0.30;0.30;;;20.10;99.90;;;;;;5088534;28;20049;-80
2022/06/12 08:58:53;;;;;;;0.32;0.28;;;20.30;99.90;;;;;;5088409;28;20041;-80
2022/06/12 09:01:20;;;;;;;0.35;0.20;;;20.30;99.90;;;;;;5071288;28;20091;-80
2022/06/12 09:03:50;;;;;;;1.95;0.65;;;20.30;99.90;;;;;;5071438;28;20451;-80
2022/06/12 09:06:35;;;;;;;0.15;0.15;;;20.30;99.90;;;;;;5071349;28;20049;-79
2022/06/12 09:09:08;;;;;;;0.20;0.20;;;20.40;99.90;;;;;;5071616;28;20084;-80
2022/06/12 09:11:42;;;;;;;0.63;0.38;;;20.50;99.90;;;;;;5087666;28;20044;-80
2022/06/12 09:14:32;;;;;;;0.10;0.10;;;20.60;99.90;;;;;;5087715;28;20048;-79
2022/06/12 09:17:04;;;;;;;0.13;0.10;;;20.80;99.90;;;;;;5071091;28;20051;-80
2022/06/12 09:19:41;;;;;;;0.32;0.30;;;20.60;99.90;;;;;;5087917;28;20043;-79
2022/06/12 09:22:36;;;;;;;0.22;0.20;;;20.70;99.90;;;;;;5087184;28;20055;-80
2022/06/12 09:25:11;;;;;;;0.17;0.10;;;20.90;99.90;;;;;;5070721;28;20116;-80
2022/06/12 09:27:44;;;;;;;1.17;0.40;;;21.00;99.90;;;;;;5087726;28;20043;-80
2022/06/12 09:30:35;;;;;;;0.30;0.30;;;21.00;99.90;;;;;;5087148;28;20044;-80
2022/06/12 09:33:16;;;;;;;0.10;0.10;;;21.20;99.90;;;;;;5087032;28;20040;-79
2022/06/12 09:36:04;;;;;;;0.30;0.20;;;21.30;99.90;;;;;;5088057;28;20043;-79
2022/06/12 09:39:04;;;;;;;0.20;0.20;;;21.50;99.90;;;;;;5087862;28;20048;-79
2022/06/12 09:41:30;;;;;;;0.10;0.10;;;21.50;99.90;;;;;;5087486;28;20037;-80
2022/06/12 09:44:15;;;;;;;2.42;0.60;;;21.30;99.90;;;;;;5087297;28;20044;-79
2022/06/12 09:46:44;;;;;;;0.30;0.30;;;21.50;99.90;;;;;;5087454;28;20080;-80
2022/06/12 09:49:26;;;;;;;0.47;0.40;;;21.60;99.90;;;;;;5087157;28;20560;-80
2022/06/12 09:51:59;;;;;;;0.30;0.22;;;21.50;99.90;;;;;;5089905;28;20502;-80
2022/06/12 09:54:47;;;;;;;0.90;0.55;;;21.60;99.90;;;;;;5091387;28;20044;-80
2022/06/12 09:57:27;;;;;;;0.20;0.20;;;21.70;99.90;;;;;;5090593;28;20040;-80
2022/06/12 10:00:05;;;;;;;0.17;0.17;;;21.70;99.90;;;;;;5090394;28;20493;-80
2022/06/12 10:02:36;;;;;;;0.38;0.13;;;21.80;99.90;;;;;;5073897;28;20486;-80
2022/06/12 10:05:24;;;;;;;0.10;0.10;;;21.60;99.90;;;;;;5090442;28;20063;-80
2022/06/12 10:07:58;;;;;;;2.08;0.50;;;21.60;99.90;;;;;;5090592;28;20083;-80
2022/06/12 10:10:39;;;;;;;0.25;0.20;;;21.80;99.90;;;;;;5079973;28;20040;-80
2022/06/12 10:13:10;;;;;;;0.50;0.30;;;22.10;99.90;;;;;;5053639;28;20044;-82
2022/06/12 10:16:10;;;;;;;0.32;0.17;;;22.00;99.90;;;;;;5053743;28;20094;-80
2022/06/12 10:18:44;;;;;;;0.20;0.20;;;22.10;99.90;;;;;;5054183;28;20033;-81
2022/06/12 10:21:16;;;;;;;0.85;0.40;;;22.00;99.90;;;;;;5053746;28;20044;-80
2022/06/12 10:23:42;;;;;;;0.15;0.15;;;21.90;99.90;;;;;;5053872;28;20102;-80
2022/06/12 10:26:23;;;;;;;0.22;0.22;;;21.70;99.90;;;;;;5053872;28;20044;-80
2022/06/12 10:29:12;;;;;;;0.50;0.40;;;21.50;99.90;;;;;;5069875;28;20490;-80
2022/06/12 10:31:58;;;;;;;0.10;0.10;;;21.20;99.90;;;;;;5069941;28;20047;-82
2022/06/12 10:34:31;;;;;;;0.38;0.30;;;21.00;99.90;;;;;;5053370;28;20127;-81
2022/06/12 10:37:32;;;;;;;0.20;0.20;;;20.90;99.90;;;;;;5070052;28;20060;-81
2022/06/12 10:40:06;;;;;;;0.17;0.17;;;20.80;99.90;;;;;;5072229;28;20068;-80
2022/06/12 10:42:43;;;;;;;0.20;0.20;;;20.50;99.90;;;;;;5069534;28;20382;-80
2022/06/12 10:45:24;;;;;;;0.17;0.10;;;20.40;99.90;;;;;;5053667;28;20045;-80
2022/06/12 10:47:53;;;;;;;1.77;0.40;;;20.50;99.90;;;;;;5053411;28;20052;-81
2022/06/12 10:50:30;;;;;;;0.57;0.30;;;20.40;99.90;;;;;;5074620;28;20044;-82
2022/06/12 10:53:02;;;;;;;0.55;0.30;;;20.60;99.90;;;;;;5072647;28;20119;-81
2022/06/12 10:55:41;;;;;;;1.10;0.43;;;21.00;99.90;;;;;;5073058;28;20040;-81
2022/06/12 10:58:16;;;;;;;0.40;0.20;;;21.20;99.90;;;;;;5072900;28;20044;-79
2022/06/12 11:00:46;;;;;;;0.20;0.20;;;21.50;99.90;;;;;;5089673;28;20473;-81
2022/06/12 11:03:33;;;;;;;0.20;0.20;;;21.80;99.90;;;;;;5089282;28;20111;-81
2022/06/12 11:06:24;;;;;;;0.15;0.15;;;21.80;98.50;;;;;;5088872;28;20076;-80
2022/06/12 11:09:01;;;;;;;0.20;0.20;;;21.90;99.50;;;;;;5072635;28;20033;-80
2022/06/12 11:11:58;;;;;;;0.20;0.20;;;22.10;99.50;;;;;;5072119;28;20810;-80
2022/06/12 11:15:00;;;;;;;0.25;0.20;;;22.00;98.10;;;;;;5089066;28;20036;-81
2022/06/12 11:17:45;;;;;;;0.30;0.20;;;22.20;98.50;;;;;;5082834;28;20140;-81
2022/06/12 11:20:38;;;;;;;0.10;0.10;;;22.30;97.30;;;;;;5064250;28;20056;-81
2022/06/12 11:23:14;;;;;;;0.13;0.13;;;22.20;97.00;;;;;;5084992;28;20033;-82
2022/06/12 11:26:38;;;;;;;0.22;0.22;;;22.30;98.10;;;;;;5052764;28;20032;-82
2022/06/12 11:29:29;;;;;;;0.20;0.20;;;22.30;98.40;;;;;;5028865;28;20038;-82
2022/06/12 11:32:06;;;;;;;0.20;0.20;;;22.40;97.30;;;;;;5028994;28;20044;-82
2022/06/12 11:34:53;;;;;;;0.22;0.22;;;22.30;95.40;;;;;;5063497;28;20060;-81
2022/06/12 11:37:35;;;;;;;0.40;0.30;;;22.40;95.90;;;;;;5065728;28;20131;-80
2022/06/12 11:40:15;;;;;;;0.20;0.20;;;22.30;96.50;;;;;;5088472;28;20041;-80
2022/06/12 11:42:47;;;;;;;0.08;0.08;;;22.10;97.00;;;;;;5057167;28;20036;-81
2022/06/12 11:45:21;;;;;;;0.20;0.20;;;22.10;95.90;;;;;;5062022;28;20102;-80
2022/06/12 11:48:00;;;;;;;0.10;0.10;;;22.00;96.70;;;;;;5081733;28;20055;-80
2022/06/12 11:50:44;;;;;;;0.13;0.13;;;21.90;96.20;;;;;;5062606;28;20067;-81
2022/06/12 11:53:10;;;;;;;0.10;0.10;;;22.00;95.90;;;;;;5081028;28;20048;-79
2022/06/12 11:55:50;;;;;;;0.20;0.17;;;22.20;96.20;;;;;;5089199;28;20409;-80
2022/06/12 11:58:20;;;;;;;0.15;0.15;;;22.30;95.70;;;;;;5072414;28;20044;-80
2022/06/12 12:01:09;;;;;;;0.10;0.10;;;22.20;95.90;;;;;;5073780;28;20072;-82
2022/06/12 12:04:00;;;;;;;0.10;0.10;;;22.50;97.50;;;;;;5052163;28;20041;-81
2022/06/12 12:06:45;;;;;;;0.35;0.25;;;22.60;94.20;;;;;;5071359;28;20036;-80
2022/06/12 12:09:27;;;;;;;0.57;0.17;;;22.50;93.50;;;;;;5072347;28;20133;-80
2022/06/12 12:12:19;;;;;;;0.15;0.10;;;22.60;95.00;;;;;;5089576;28;20360;-82
2022/06/12 12:14:47;;;;;;;0.13;0.13;;;22.50;95.00;;;;;;5058741;28;20048;-81
2022/06/12 12:17:17;;;;;;;0.32;0.30;;;22.10;93.60;;;;;;5072211;28;20049;-79
2022/06/12 12:19:55;;;;;;;0.40;0.22;;;21.90;94.70;;;;;;5091573;28;20569;-80
2022/06/12 12:22:30;;;;;;;0.20;0.20;;;21.60;94.90;;;;;;5088958;28;20129;-80
2022/06/12 12:25:21;;;;;;;0.13;0.13;;;21.60;95.50;;;;;;5087035;28;20051;-80
2022/06/12 12:27:52;;;;;;;0.08;0.08;;;21.80;94.20;;;;;;5092510;28;20048;-82
2022/06/12 12:30:33;;;;;;;0.20;0.20;;;22.00;94.50;;;;;;5075624;28;20044;-80
2022/06/12 12:33:03;;;;;;;0.17;0.17;;;22.10;94.60;;;;;;5068913;28;20089;-81
2022/06/12 12:41:38;;;;;;;0.10;0.10;;;22.30;94.50;;;;;;5037748;28;20048;-80
2022/06/12 12:44:06;;;;;;;0.20;0.20;;;21.80;93.80;;;;;;5064697;28;20094;-81
2022/06/12 12:46:49;;;;;;;0.10;0.08;;;21.50;94.50;;;;;;5058210;28;20044;-80
2022/06/12 12:49:27;;;;;;;1.13;0.20;;;21.60;96.30;;;;;;5082925;28;20136;-80
2022/06/12 12:52:07;;;;;;;0.03;0.03;;;21.90;96.70;;;;;;5090912;28;20049;-80
2022/06/12 12:54:54;;;;;;;0.85;0.30;;;22.10;94.70;;;;;;5074606;28;20048;-81
2022/06/12 12:57:41;;;;;;;0.13;0.10;;;22.40;95.60;;;;;;5071143;28;20055;-81
2022/06/12 13:00:25;;;;;;;0.65;0.30;;;22.30;95.30;;;;;;5071297;28;20414;-81
2022/06/12 13:03:00;;;;;;;0.38;0.30;;;22.30;94.30;;;;;;5080437;28;20045;-81
2022/06/12 13:05:57;;;;;;;0.30;0.22;;;22.60;95.70;;;;;;5079676;28;20040;-80
2022/06/12 13:08:37;;;;;;;0.20;0.20;;;22.70;95.30;;;;;;5074676;28;20056;-82
2022/06/12 13:11:27;;;;;;;0.45;0.30;;;22.40;93.40;;;;;;5104571;28;20052;-80
2022/06/12 13:14:23;;;;;;;0.28;0.28;;;22.10;93.40;;;;;;5098068;28;20450;-81
2022/06/12 13:17:11;;;;;;;0.10;0.10;;;21.90;94.20;;;;;;5074109;28;20094;-81
2022/06/12 13:20:09;;;;;;;0.10;0.10;;;21.90;94.90;;;;;;5088638;28;20039;-80
2022/06/12 13:22:59;;;;;;;0.10;0.10;;;21.90;94.60;;;;;;5076194;28;20044;-80
2022/06/12 13:25:35;;;;;;;0.20;0.20;;;21.70;94.60;;;;;;5086508;28;20524;-80
2022/06/12 13:28:03;;;;;;;0.20;0.20;;;21.80;94.80;;;;;;5073272;28;20036;-81
2022/06/12 13:30:37;;;;;;;0.10;0.10;;;22.00;95.90;;;;;;5074746;28;20059;-81
2022/06/12 13:33:20;;;;;;;0.95;0.40;;;21.90;95.20;;;;;;5091399;28;20417;-82
2022/06/12 13:35:53;;;;;;;0.17;0.17;;;22.00;94.80;;;;;;5074003;28;20044;-80
2022/06/12 13:38:29;;;;;;;0.90;0.28;;;21.90;94.90;;;;;;5073957;28;20041;-81
2022/06/12 13:41:07;;;;;;;0.35;0.25;;;21.80;94.70;;;;;;5090377;28;20044;-80
2022/06/12 13:43:41;;;;;;;0.13;0.13;;;22.00;96.40;;;;;;5066743;28;20047;-80
2022/06/12 13:46:33;;;;;;;0.30;0.15;;;22.20;94.70;;;;;;5073578;28;20172;-80
2022/06/12 13:49:01;;;;;;;0.43;0.10;;;22.30;95.60;;;;;;5071230;28;20044;-82
2022/06/12 13:51:44;;;;;;;0.10;0.10;;;22.10;95.70;;;;;;5093355;28;20044;-81